Terminal Aerodrome Forecast
Issued by NWS Lake Charles, LA

Home | Current Version | Previous Version | Text Only | Print | Product List | Glossary On
Versions: 1 2 3 4 5 6 7 8 9 10 11 12
000
FTUS44 KLCH 191725
TAFBPT
TAF
KBPT 191725Z 1918/2018 08010KT P6SM SCT250
     FM200900 09008KT P6SM OVC050
     FM201400 10013G21KT P6SM VCSH SCT035 OVC050 PROB30 2014/2018
      P6SM SHRA BKN025=

USA.gov is the U.S. government's official web portal to all federal, state and local government web resources and services.